首页
METAR-TAF:

METAR-TAF

机场 :

Pittsburg, 堪薩斯州, 美国

纬度: 37-26-58N, 经度: 094-43-52W, 海拔: 290米

当前天气观测

该预报发布于12分钟前的23:55 UTC
风速6节,风向北转西北
温度 0°C
湿度 64%
气压 1017 hPa
能見度: 16.1公里
天空无云

METAR: KPTS 092355Z AUTO 34006KT 10SM CLR 00/M06 A3002 RMK AO2 T00001065

时间: 18:07 (00:07 UTC)


TAF: 丢失

超过4000个机场的气象观测和天气预报(METAR&TAF报告)。

可查询的气象台以黄色和红色小点在地图上表示。

将鼠标移到小点上方,可查看气象台名称。

然后点击查看天气观测和预报。

如需切换地图:点击带黑十字的绿色按钮放大地图;点击带横线的绿色按钮缩小地图;或者点击绿色箭头查看邻近地区的地图。


METAR-TAF: